Time,TemperatureF,DewpointF,PressureIn,WindDirection,WindDirectionDegrees,WindSpeedMPH,WindSpeedGustMPH,Humidity,HourlyPrecipIn,Conditions,Clouds,dailyrainin,SoftwareType,DateUTC
2013-03-07 00:02:00,35.0,31.0,29.93,NE,47,6.0,15.0,85,0.00,,,-99.99,,2013-03-07 05:02:00,
2013-03-07 00:12:00,35.0,31.0,29.93,NE,47,6.0,15.0,85,0.00,,,-99.99,,2013-03-07 05:12:00,
2013-03-07 00:22:00,35.0,31.0,29.93,NNW,330,7.0,17.0,86,0.00,,,-99.99,,2013-03-07 05:22:00,
2013-03-07 00:32:00,35.0,31.0,29.92,ENE,71,6.0,14.0,85,0.00,,,-99.99,,2013-03-07 05:32:00,
2013-03-07 00:42:00,35.0,31.0,29.92,ENE,71,6.0,14.0,85,0.00,,,-99.99,,2013-03-07 05:42:00,
2013-03-07 00:52:00,35.0,31.0,29.93,ENE,63,7.0,17.0,84,0.00,,,-99.99,,2013-03-07 05:52:00,
2013-03-07 01:02:00,35.0,31.0,29.93,ENE,63,7.0,17.0,84,0.00,,,-99.99,,2013-03-07 06:02:00,
2013-03-07 01:11:00,35.0,31.0,29.93,ENE,63,7.0,17.0,84,0.00,,,-99.99,,2013-03-07 06:11:00,
2013-03-07 01:21:00,35.0,31.0,29.93,ENE,63,7.0,17.0,84,0.00,,,-99.99,,2013-03-07 06:21:00,
2013-03-07 01:30:00,33.0,31.0,29.92,NE,34,6.0,12.0,91,0.00,,,-99.99,,2013-03-07 06:30:00,
2013-03-07 01:32:00,34.0,31.0,29.93,NE,46,6.0,15.0,89,0.00,,,-99.99,,2013-03-07 06:32:00,
2013-03-07 01:42:00,33.0,31.0,29.92,NE,34,6.0,12.0,91,0.00,,,-99.99,,2013-03-07 06:42:00,
2013-03-07 01:52:00,33.0,31.0,29.92,NE,34,6.0,12.0,91,0.00,,,-99.99,,2013-03-07 06:52:00,
2013-03-07 02:01:00,33.0,31.0,29.92,NE,34,6.0,12.0,91,0.00,,,-99.99,,2013-03-07 07:01:00,
2013-03-07 02:11:00,33.0,31.0,29.92,NE,34,6.0,12.0,91,0.00,,,-99.99,,2013-03-07 07:11:00,
2013-03-07 02:21:00,33.0,31.0,29.92,NE,34,6.0,12.0,91,0.00,,,-99.99,,2013-03-07 07:21:00,
2013-03-07 11:33:00,36.0,30.0,29.95,NNE,32,5.0,15.0,79,0.00,,,-99.99,,2013-03-07 16:33:00,
2013-03-07 11:43:00,36.0,30.0,29.95,NNE,32,5.0,15.0,79,0.00,,,-99.99,,2013-03-07 16:43:00,
2013-03-07 11:53:00,36.0,30.0,29.95,NNE,15,7.0,16.0,78,0.00,,,-99.99,,2013-03-07 16:53:00,
2013-03-07 12:02:00,36.0,30.0,29.95,NE,46,6.0,16.0,78,0.00,,,-99.99,,2013-03-07 17:02:00,
2013-03-07 12:12:00,36.0,30.0,29.95,NE,46,6.0,16.0,78,0.00,,,-99.99,,2013-03-07 17:12:00,
2013-03-07 12:22:00,36.0,30.0,29.95,NE,53,6.0,15.0,78,0.01,,,-99.99,,2013-03-07 17:22:00,
2013-03-07 12:30:00,35.0,30.0,29.95,ENE,63,5.0,12.0,82,0.02,,,-99.99,,2013-03-07 17:30:00,
2013-03-07 12:33:00,36.0,30.0,29.96,ENE,68,6.0,15.0,78,0.02,,,-99.99,,2013-03-07 17:33:00,
2013-03-07 12:43:00,36.0,30.0,29.96,ENE,68,6.0,15.0,78,0.02,,,-99.99,,2013-03-07 17:43:00,
2013-03-07 12:54:00,35.0,30.0,29.95,ENE,63,5.0,12.0,82,0.02,,,-99.99,,2013-03-07 17:54:00,
2013-03-07 13:04:00,35.0,30.0,29.95,ENE,63,5.0,12.0,82,0.02,,,-99.99,,2013-03-07 18:04:00,
2013-03-07 13:13:00,35.0,30.0,29.95,ENE,63,5.0,12.0,82,0.02,,,-99.99,,2013-03-07 18:13:00,
2013-03-07 13:22:00,35.0,30.0,29.95,ENE,63,5.0,12.0,82,0.02,,,-99.99,,2013-03-07 18:22:00,
2013-03-07 19:10:00,32.0,32.0,30.00,NNW,346,5.0,13.0,98,0.00,,,-99.99,,2013-03-08 00:10:00,
2013-03-07 19:23:00,32.0,32.0,30.00,WNW,296,4.0,12.0,98,0.00,,,-99.99,,2013-03-08 00:23:00,
2013-03-07 19:35:00,32.0,32.0,30.00,NNW,346,5.0,13.0,98,0.00,,,-99.99,,2013-03-08 00:35:00,
2013-03-07 19:44:00,32.0,32.0,30.00,NNW,346,5.0,13.0,98,0.00,,,-99.99,,2013-03-08 00:44:00,
2013-03-07 19:54:00,32.0,32.0,30.00,NNW,346,5.0,13.0,98,0.00,,,-99.99,,2013-03-08 00:54:00,
2013-03-07 20:02:00,32.0,32.0,30.00,NNW,346,5.0,13.0,98,0.00,,,-99.99,,2013-03-08 01:02:00,
2013-03-07 20:22:00,32.0,32.0,30.00,NW,306,4.0,11.0,98,0.00,,,-99.99,,2013-03-08 01:22:00,
2013-03-07 20:33:00,32.0,32.0,30.00,WNW,295,5.0,12.0,98,0.00,,,-99.99,,2013-03-08 01:33:00,
2013-03-07 20:42:00,32.0,32.0,30.00,WNW,295,5.0,12.0,98,0.00,,,-99.99,,2013-03-08 01:42:00,
2013-03-07 20:52:00,32.0,32.0,30.00,WNW,295,5.0,12.0,98,0.00,,,-99.99,,2013-03-08 01:52:00,
2013-03-07 21:01:00,32.0,32.0,29.99,WNW,302,3.0,9.0,99,0.00,,,-99.99,,2013-03-08 02:01:00,
2013-03-07 21:12:00,32.0,32.0,29.99,NW,311,4.0,9.0,99,0.00,,,-99.99,,2013-03-08 02:12:00,
2013-03-07 21:22:00,32.0,32.0,29.99,NW,311,4.0,9.0,99,0.00,,,-99.99,,2013-03-08 02:22:00,
2013-03-07 21:32:00,32.0,32.0,29.99,NW,311,4.0,9.0,99,0.00,,,-99.99,,2013-03-08 02:32:00,
2013-03-07 21:42:00,32.0,32.0,29.99,NW,311,4.0,9.0,99,0.00,,,-99.99,,2013-03-08 02:42:00,
2013-03-07 21:53:00,32.0,32.0,29.98,NW,311,4.0,9.0,99,0.00,,,-99.99,,2013-03-08 02:53:00,
2013-03-07 22:02:00,32.0,32.0,29.98,NW,311,4.0,9.0,99,0.00,,,-99.99,,2013-03-08 03:02:00,
2013-03-07 22:12:00,32.0,32.0,29.98,NW,311,4.0,9.0,99,0.00,,,-99.99,,2013-03-08 03:12:00,
2013-03-07 22:22:00,32.0,32.0,29.98,North,349,3.0,8.0,99,0.00,,,-99.99,,2013-03-08 03:22:00,
2013-03-07 22:32:00,32.0,32.0,29.98,North,349,3.0,8.0,99,0.00,,,-99.99,,2013-03-08 03:32:00,
2013-03-07 22:43:00,32.0,32.0,29.98,North,349,3.0,8.0,99,0.00,,,-99.99,,2013-03-08 03:43:00,
2013-03-07 22:53:00,32.0,32.0,29.97,NNE,18,3.0,9.0,99,0.00,,,-99.99,,2013-03-08 03:53:00,
2013-03-07 23:02:00,32.0,32.0,29.97,NNE,18,3.0,9.0,99,0.00,,,-99.99,,2013-03-08 04:02:00,
2013-03-07 23:12:00,32.0,32.0,29.97,NNE,18,3.0,9.0,99,0.00,,,-99.99,,2013-03-08 04:12:00,
2013-03-07 23:22:00,32.0,32.0,29.97,WNW,283,3.0,8.0,99,0.00,,,-99.99,,2013-03-08 04:22:00,
2013-03-07 23:32:00,32.0,32.0,29.97,NNW,340,3.0,9.0,99,0.00,,,-99.99,,2013-03-08 04:32:00,
2013-03-07 23:42:00,32.0,32.0,29.97,NNW,340,3.0,9.0,99,0.00,,,-99.99,,2013-03-08 04:42:00,
2013-03-07 23:52:00,32.0,32.0,29.97,NNW,332,3.0,9.0,99,0.00,,,-99.99,,2013-03-08 04:52:00,